Terminal Aerodrome Forecast
Issued by NWS Cleveland, OH

Home | Current Version | Previous Version | Graphics & Text | Print | Product List | Glossary On
Versions: 1 2 3 4 5 6 7 8 9 10 11 12 13 14 15 16
000
FTUS41 KCLE 181121
TAFTOL
TAF
KTOL 181121Z 1812/1912 26005KT P6SM OVC028
      TEMPO 1813/1816 VRB05KT SCT030
     FM181600 10006KT P6SM BKN030
     FM182200 07009KT P6SM -RA OVC028
     FM190000 06009KT 5SM -RA OVC015
     FM190300 04012G20KT 4SM -RASN OVC007
     FM190500 01012G20KT 4SM -SN OVC005
     FM191000 34012G20KT P6SM OVC010=

USA.gov is the U.S. government's official web portal to all federal, state and local government web resources and services.